sensor_id;sensor_type;location;lat;lon;timestamp;P1;durP1;ratioP1;P2;durP2;ratioP2
73898;SDS011;62234;50.892;12.724;2023-02-22T00:00:55;7.30;;;3.63;;
73898;SDS011;62234;50.892;12.724;2023-02-22T00:05:54;7.78;;;3.95;;
73898;SDS011;62234;50.892;12.724;2023-02-22T00:08:23;6.80;;;3.80;;
73898;SDS011;62234;50.892;12.724;2023-02-22T00:10:49;6.43;;;4.00;;
73898;SDS011;62234;50.892;12.724;2023-02-22T00:13:15;6.80;;;3.65;;
73898;SDS011;62234;50.892;12.724;2023-02-22T00:15:41;5.47;;;3.53;;
73898;SDS011;62234;50.892;12.724;2023-02-22T00:18:08;7.78;;;3.47;;
73898;SDS011;62234;50.892;12.724;2023-02-22T00:20:35;6.68;;;3.05;;
73898;SDS011;62234;50.892;12.724;2023-02-22T00:23:25;7.18;;;3.15;;
73898;SDS011;62234;50.892;12.724;2023-02-22T00:25:52;7.57;;;3.20;;
73898;SDS011;62234;50.892;12.724;2023-02-22T00:28:19;7.85;;;3.88;;
73898;SDS011;62234;50.892;12.724;2023-02-22T00:30:48;6.07;;;3.50;;
73898;SDS011;62234;50.892;12.724;2023-02-22T00:33:14;5.30;;;3.28;;
73898;SDS011;62234;50.892;12.724;2023-02-22T00:35:40;6.53;;;3.03;;
73898;SDS011;62234;50.892;12.724;2023-02-22T00:38:09;7.10;;;3.25;;
73898;SDS011;62234;50.892;12.724;2023-02-22T00:40:35;7.43;;;3.47;;
73898;SDS011;62234;50.892;12.724;2023-02-22T00:43:02;6.97;;;3.15;;
73898;SDS011;62234;50.892;12.724;2023-02-22T00:45:29;8.15;;;3.88;;
73898;SDS011;62234;50.892;12.724;2023-02-22T00:47:56;5.93;;;3.22;;
73898;SDS011;62234;50.892;12.724;2023-02-22T00:50:23;5.97;;;3.10;;
73898;SDS011;62234;50.892;12.724;2023-02-22T00:52:50;7.60;;;3.45;;
73898;SDS011;62234;50.892;12.724;2023-02-22T00:55:20;6.90;;;3.65;;
73898;SDS011;62234;50.892;12.724;2023-02-22T00:57:46;6.60;;;3.55;;
73898;SDS011;62234;50.892;12.724;2023-02-22T01:00:15;6.35;;;3.05;;
73898;SDS011;62234;50.892;12.724;2023-02-22T01:02:41;7.95;;;3.65;;
73898;SDS011;62234;50.892;12.724;2023-02-22T01:05:08;6.28;;;3.03;;
73898;SDS011;62234;50.892;12.724;2023-02-22T01:07:36;8.50;;;4.00;;
73898;SDS011;62234;50.892;12.724;2023-02-22T01:10:02;10.38;;;3.60;;
73898;SDS011;62234;50.892;12.724;2023-02-22T01:12:29;5.95;;;3.05;;
73898;SDS011;62234;50.892;12.724;2023-02-22T01:14:57;5.25;;;3.03;;
73898;SDS011;62234;50.892;12.724;2023-02-22T01:17:23;5.53;;;3.25;;
73898;SDS011;62234;50.892;12.724;2023-02-22T01:19:50;5.47;;;3.08;;
73898;SDS011;62234;50.892;12.724;2023-02-22T01:22:16;6.10;;;3.47;;
73898;SDS011;62234;50.892;12.724;2023-02-22T01:24:43;8.18;;;3.72;;
73898;SDS011;62234;50.892;12.724;2023-02-22T01:27:08;8.98;;;3.83;;
73898;SDS011;62234;50.892;12.724;2023-02-22T01:29:34;6.63;;;3.53;;
73898;SDS011;62234;50.892;12.724;2023-02-22T01:32:00;8.60;;;4.45;;
73898;SDS011;62234;50.892;12.724;2023-02-22T01:34:26;5.15;;;3.03;;
73898;SDS011;62234;50.892;12.724;2023-02-22T01:36:54;6.72;;;3.55;;
73898;SDS011;62234;50.892;12.724;2023-02-22T01:39:20;6.93;;;3.28;;
73898;SDS011;62234;50.892;12.724;2023-02-22T01:41:46;7.28;;;3.58;;
73898;SDS011;62234;50.892;12.724;2023-02-22T01:44:31;8.07;;;3.55;;
73898;SDS011;62234;50.892;12.724;2023-02-22T01:46:59;6.00;;;3.67;;
73898;SDS011;62234;50.892;12.724;2023-02-22T01:49:28;7.07;;;4.15;;
73898;SDS011;62234;50.892;12.724;2023-02-22T01:51:56;6.60;;;3.65;;
73898;SDS011;62234;50.892;12.724;2023-02-22T01:54:24;8.60;;;3.78;;
73898;SDS011;62234;50.892;12.724;2023-02-22T01:57:02;8.25;;;3.70;;
73898;SDS011;62234;50.892;12.724;2023-02-22T01:59:31;7.20;;;3.67;;
73898;SDS011;62234;50.892;12.724;2023-02-22T02:01:58;9.95;;;4.95;;
73898;SDS011;62234;50.892;12.724;2023-02-22T02:04:25;7.22;;;4.10;;
73898;SDS011;62234;50.892;12.724;2023-02-22T02:06:52;6.82;;;3.67;;
73898;SDS011;62234;50.892;12.724;2023-02-22T02:09:35;9.60;;;4.30;;
73898;SDS011;62234;50.892;12.724;2023-02-22T02:12:03;10.07;;;4.47;;
73898;SDS011;62234;50.892;12.724;2023-02-22T02:14:30;13.20;;;5.07;;
73898;SDS011;62234;50.892;12.724;2023-02-22T02:16:57;7.28;;;4.15;;
73898;SDS011;62234;50.892;12.724;2023-02-22T02:22:06;8.93;;;4.57;;
73898;SDS011;62234;50.892;12.724;2023-02-22T02:24:40;9.23;;;4.55;;
73898;SDS011;62234;50.892;12.724;2023-02-22T02:27:13;8.88;;;4.20;;
73898;SDS011;62234;50.892;12.724;2023-02-22T02:40:16;8.27;;;3.63;;
73898;SDS011;62234;50.892;12.724;2023-02-22T02:42:53;9.38;;;4.60;;
73898;SDS011;62234;50.892;12.724;2023-02-22T02:45:31;9.00;;;4.47;;
73898;SDS011;62234;50.892;12.724;2023-02-22T02:47:59;10.27;;;4.30;;
73898;SDS011;62234;50.892;12.724;2023-02-22T02:50:31;10.15;;;4.60;;
73898;SDS011;62234;50.892;12.724;2023-02-22T02:53:00;9.30;;;4.53;;
73898;SDS011;62234;50.892;12.724;2023-02-22T02:55:28;8.50;;;5.13;;
73898;SDS011;62234;50.892;12.724;2023-02-22T02:57:54;12.18;;;4.90;;
73898;SDS011;62234;50.892;12.724;2023-02-22T03:00:21;10.00;;;4.85;;
73898;SDS011;62234;50.892;12.724;2023-02-22T03:08:32;10.15;;;4.63;;
73898;SDS011;62234;50.892;12.724;2023-02-22T03:11:04;8.98;;;4.15;;
73898;SDS011;62234;50.892;12.724;2023-02-22T03:19:10;23.05;;;5.38;;
73898;SDS011;62234;50.892;12.724;2023-02-22T03:21:43;10.77;;;4.90;;
73898;SDS011;62234;50.892;12.724;2023-02-22T03:26:45;9.63;;;4.72;;
73898;SDS011;62234;50.892;12.724;2023-02-22T03:29:13;10.57;;;5.40;;
73898;SDS011;62234;50.892;12.724;2023-02-22T03:31:43;8.25;;;4.07;;
73898;SDS011;62234;50.892;12.724;2023-02-22T03:34:13;9.82;;;4.93;;
73898;SDS011;62234;50.892;12.724;2023-02-22T03:36:46;11.95;;;5.07;;
73898;SDS011;62234;50.892;12.724;2023-02-22T03:39:13;9.88;;;4.50;;
73898;SDS011;62234;50.892;12.724;2023-02-22T03:41:40;7.88;;;4.32;;
73898;SDS011;62234;50.892;12.724;2023-02-22T03:44:09;14.77;;;4.10;;
73898;SDS011;62234;50.892;12.724;2023-02-22T03:46:37;11.25;;;5.55;;
73898;SDS011;62234;50.892;12.724;2023-02-22T03:49:29;9.02;;;4.35;;
73898;SDS011;62234;50.892;12.724;2023-02-22T03:51:59;11.00;;;5.07;;
73898;SDS011;62234;50.892;12.724;2023-02-22T03:54:25;15.13;;;5.35;;
73898;SDS011;62234;50.892;12.724;2023-02-22T03:56:56;10.18;;;5.30;;
73898;SDS011;62234;50.892;12.724;2023-02-22T04:01:51;11.00;;;4.90;;
73898;SDS011;62234;50.892;12.724;2023-02-22T04:04:17;9.90;;;4.47;;
73898;SDS011;62234;50.892;12.724;2023-02-22T04:06:43;11.23;;;4.90;;
73898;SDS011;62234;50.892;12.724;2023-02-22T04:09:09;11.13;;;4.75;;
73898;SDS011;62234;50.892;12.724;2023-02-22T04:11:36;10.80;;;4.97;;
73898;SDS011;62234;50.892;12.724;2023-02-22T04:14:02;11.05;;;4.68;;
73898;SDS011;62234;50.892;12.724;2023-02-22T04:16:29;7.78;;;4.70;;
73898;SDS011;62234;50.892;12.724;2023-02-22T04:18:55;12.32;;;5.30;;
73898;SDS011;62234;50.892;12.724;2023-02-22T04:21:20;12.52;;;4.82;;
73898;SDS011;62234;50.892;12.724;2023-02-22T04:23:46;11.30;;;5.32;;
73898;SDS011;62234;50.892;12.724;2023-02-22T04:26:12;12.23;;;5.75;;
73898;SDS011;62234;50.892;12.724;2023-02-22T04:28:38;10.02;;;4.65;;
73898;SDS011;62234;50.892;12.724;2023-02-22T04:31:04;12.20;;;5.15;;
73898;SDS011;62234;50.892;12.724;2023-02-22T04:33:30;10.77;;;4.80;;
73898;SDS011;62234;50.892;12.724;2023-02-22T04:35:56;9.10;;;4.50;;
73898;SDS011;62234;50.892;12.724;2023-02-22T04:38:23;10.48;;;4.22;;
73898;SDS011;62234;50.892;12.724;2023-02-22T04:40:50;9.65;;;4.90;;
73898;SDS011;62234;50.892;12.724;2023-02-22T04:43:16;9.80;;;4.95;;
73898;SDS011;62234;50.892;12.724;2023-02-22T04:45:42;11.65;;;4.72;;
73898;SDS011;62234;50.892;12.724;2023-02-22T04:48:08;9.60;;;5.15;;
73898;SDS011;62234;50.892;12.724;2023-02-22T04:50:34;11.43;;;4.60;;
73898;SDS011;62234;50.892;12.724;2023-02-22T04:53:00;13.15;;;5.18;;
73898;SDS011;62234;50.892;12.724;2023-02-22T04:55:25;13.48;;;5.45;;
73898;SDS011;62234;50.892;12.724;2023-02-22T04:57:52;9.95;;;4.85;;
73898;SDS011;62234;50.892;12.724;2023-02-22T05:00:18;13.95;;;5.35;;
73898;SDS011;62234;50.892;12.724;2023-02-22T05:02:45;9.80;;;5.00;;
73898;SDS011;62234;50.892;12.724;2023-02-22T05:05:12;9.43;;;4.82;;
73898;SDS011;62234;50.892;12.724;2023-02-22T05:07:39;12.57;;;5.30;;
73898;SDS011;62234;50.892;12.724;2023-02-22T05:10:05;12.68;;;5.18;;
73898;SDS011;62234;50.892;12.724;2023-02-22T05:12:31;9.35;;;4.72;;
73898;SDS011;62234;50.892;12.724;2023-02-22T05:14:56;11.63;;;4.85;;
73898;SDS011;62234;50.892;12.724;2023-02-22T05:17:22;13.48;;;5.18;;
73898;SDS011;62234;50.892;12.724;2023-02-22T05:19:48;10.07;;;5.00;;
73898;SDS011;62234;50.892;12.724;2023-02-22T05:22:14;10.00;;;4.85;;
73898;SDS011;62234;50.892;12.724;2023-02-22T05:24:41;12.68;;;5.50;;
73898;SDS011;62234;50.892;12.724;2023-02-22T05:27:10;10.15;;;5.22;;
73898;SDS011;62234;50.892;12.724;2023-02-22T05:29:36;14.75;;;5.35;;
73898;SDS011;62234;50.892;12.724;2023-02-22T05:32:02;10.57;;;5.13;;
73898;SDS011;62234;50.892;12.724;2023-02-22T05:34:28;14.05;;;5.47;;
73898;SDS011;62234;50.892;12.724;2023-02-22T05:36:54;14.50;;;6.10;;
73898;SDS011;62234;50.892;12.724;2023-02-22T05:39:20;12.35;;;6.20;;
73898;SDS011;62234;50.892;12.724;2023-02-22T05:41:46;13.85;;;7.28;;
73898;SDS011;62234;50.892;12.724;2023-02-22T05:44:12;12.85;;;6.03;;
73898;SDS011;62234;50.892;12.724;2023-02-22T05:46:38;14.93;;;6.15;;
73898;SDS011;62234;50.892;12.724;2023-02-22T05:49:04;13.73;;;5.68;;
73898;SDS011;62234;50.892;12.724;2023-02-22T05:51:30;11.88;;;6.05;;
73898;SDS011;62234;50.892;12.724;2023-02-22T05:53:57;13.80;;;5.72;;
73898;SDS011;62234;50.892;12.724;2023-02-22T05:56:25;13.60;;;5.95;;
73898;SDS011;62234;50.892;12.724;2023-02-22T05:58:52;12.68;;;6.03;;
73898;SDS011;62234;50.892;12.724;2023-02-22T06:01:18;12.45;;;5.90;;
73898;SDS011;62234;50.892;12.724;2023-02-22T06:03:50;13.43;;;5.70;;
73898;SDS011;62234;50.892;12.724;2023-02-22T06:06:17;15.13;;;6.43;;
73898;SDS011;62234;50.892;12.724;2023-02-22T06:08:44;13.93;;;6.30;;
73898;SDS011;62234;50.892;12.724;2023-02-22T06:11:10;13.73;;;6.10;;
73898;SDS011;62234;50.892;12.724;2023-02-22T06:13:36;13.25;;;5.75;;
73898;SDS011;62234;50.892;12.724;2023-02-22T06:16:02;15.13;;;6.07;;
73898;SDS011;62234;50.892;12.724;2023-02-22T06:18:28;14.13;;;6.25;;
73898;SDS011;62234;50.892;12.724;2023-02-22T06:20:55;14.02;;;6.00;;
73898;SDS011;62234;50.892;12.724;2023-02-22T06:23:21;10.68;;;5.75;;
73898;SDS011;62234;50.892;12.724;2023-02-22T06:25:47;10.63;;;4.68;;
73898;SDS011;62234;50.892;12.724;2023-02-22T06:28:13;14.07;;;5.93;;
73898;SDS011;62234;50.892;12.724;2023-02-22T06:30:39;11.73;;;5.65;;
73898;SDS011;62234;50.892;12.724;2023-02-22T06:33:07;12.68;;;5.75;;
73898;SDS011;62234;50.892;12.724;2023-02-22T06:35:33;13.15;;;5.75;;
73898;SDS011;62234;50.892;12.724;2023-02-22T06:37:59;16.35;;;5.95;;
73898;SDS011;62234;50.892;12.724;2023-02-22T06:40:25;13.52;;;6.05;;
73898;SDS011;62234;50.892;12.724;2023-02-22T06:42:54;11.75;;;5.13;;
73898;SDS011;62234;50.892;12.724;2023-02-22T06:45:20;12.35;;;5.60;;
73898;SDS011;62234;50.892;12.724;2023-02-22T06:47:46;12.05;;;5.30;;
73898;SDS011;62234;50.892;12.724;2023-02-22T06:50:31;13.32;;;6.10;;
73898;SDS011;62234;50.892;12.724;2023-02-22T06:52:58;9.63;;;5.10;;
73898;SDS011;62234;50.892;12.724;2023-02-22T06:55:27;10.23;;;5.88;;
73898;SDS011;62234;50.892;12.724;2023-02-22T06:57:54;13.27;;;6.07;;
73898;SDS011;62234;50.892;12.724;2023-02-22T07:00:21;14.52;;;6.20;;
73898;SDS011;62234;50.892;12.724;2023-02-22T07:02:48;14.50;;;5.90;;
73898;SDS011;62234;50.892;12.724;2023-02-22T07:05:15;14.70;;;6.30;;
73898;SDS011;62234;50.892;12.724;2023-02-22T07:07:42;10.68;;;5.38;;
73898;SDS011;62234;50.892;12.724;2023-02-22T07:10:13;13.57;;;5.75;;
73898;SDS011;62234;50.892;12.724;2023-02-22T07:12:40;13.55;;;5.85;;
73898;SDS011;62234;50.892;12.724;2023-02-22T07:15:06;22.92;;;6.40;;
73898;SDS011;62234;50.892;12.724;2023-02-22T07:17:32;15.32;;;6.03;;
73898;SDS011;62234;50.892;12.724;2023-02-22T07:19:58;18.35;;;6.38;;
73898;SDS011;62234;50.892;12.724;2023-02-22T07:22:23;16.92;;;6.38;;
73898;SDS011;62234;50.892;12.724;2023-02-22T07:24:49;15.55;;;5.88;;
73898;SDS011;62234;50.892;12.724;2023-02-22T07:27:15;14.60;;;6.63;;
73898;SDS011;62234;50.892;12.724;2023-02-22T07:29:42;15.43;;;6.18;;
73898;SDS011;62234;50.892;12.724;2023-02-22T07:32:08;15.90;;;6.18;;
73898;SDS011;62234;50.892;12.724;2023-02-22T07:34:34;15.90;;;5.72;;
73898;SDS011;62234;50.892;12.724;2023-02-22T07:37:01;12.63;;;5.38;;
73898;SDS011;62234;50.892;12.724;2023-02-22T07:39:27;18.35;;;6.53;;
73898;SDS011;62234;50.892;12.724;2023-02-22T07:41:53;11.23;;;4.93;;
73898;SDS011;62234;50.892;12.724;2023-02-22T07:44:19;12.38;;;5.93;;
73898;SDS011;62234;50.892;12.724;2023-02-22T07:46:48;12.25;;;6.38;;
73898;SDS011;62234;50.892;12.724;2023-02-22T07:49:14;15.02;;;5.57;;
73898;SDS011;62234;50.892;12.724;2023-02-22T07:51:40;13.98;;;6.10;;
73898;SDS011;62234;50.892;12.724;2023-02-22T07:54:06;14.02;;;6.38;;
73898;SDS011;62234;50.892;12.724;2023-02-22T07:56:32;13.48;;;6.05;;
73898;SDS011;62234;50.892;12.724;2023-02-22T07:58:58;13.25;;;5.95;;
73898;SDS011;62234;50.892;12.724;2023-02-22T08:01:25;10.45;;;6.30;;
73898;SDS011;62234;50.892;12.724;2023-02-22T08:03:51;12.85;;;6.47;;
73898;SDS011;62234;50.892;12.724;2023-02-22T08:06:17;15.15;;;6.40;;
73898;SDS011;62234;50.892;12.724;2023-02-22T08:08:44;14.88;;;5.32;;
73898;SDS011;62234;50.892;12.724;2023-02-22T08:11:10;13.93;;;6.65;;
73898;SDS011;62234;50.892;12.724;2023-02-22T08:13:37;12.88;;;6.88;;
73898;SDS011;62234;50.892;12.724;2023-02-22T08:16:03;11.88;;;5.45;;
73898;SDS011;62234;50.892;12.724;2023-02-22T08:18:29;14.40;;;5.60;;
73898;SDS011;62234;50.892;12.724;2023-02-22T08:20:55;15.02;;;6.13;;
73898;SDS011;62234;50.892;12.724;2023-02-22T08:23:22;13.15;;;5.32;;
73898;SDS011;62234;50.892;12.724;2023-02-22T08:25:49;14.80;;;5.93;;
73898;SDS011;62234;50.892;12.724;2023-02-22T08:28:16;14.05;;;5.80;;
73898;SDS011;62234;50.892;12.724;2023-02-22T08:30:43;15.30;;;6.28;;
73898;SDS011;62234;50.892;12.724;2023-02-22T08:33:10;13.95;;;6.65;;
73898;SDS011;62234;50.892;12.724;2023-02-22T08:35:38;15.13;;;6.70;;
73898;SDS011;62234;50.892;12.724;2023-02-22T08:38:05;13.48;;;5.78;;
73898;SDS011;62234;50.892;12.724;2023-02-22T08:40:33;14.82;;;6.15;;
73898;SDS011;62234;50.892;12.724;2023-02-22T08:42:59;18.65;;;6.72;;
73898;SDS011;62234;50.892;12.724;2023-02-22T08:45:25;16.38;;;6.03;;
73898;SDS011;62234;50.892;12.724;2023-02-22T08:47:52;12.45;;;5.68;;
73898;SDS011;62234;50.892;12.724;2023-02-22T08:50:20;13.05;;;5.85;;
73898;SDS011;62234;50.892;12.724;2023-02-22T08:52:46;10.85;;;5.10;;
73898;SDS011;62234;50.892;12.724;2023-02-22T08:55:12;10.57;;;4.53;;
73898;SDS011;62234;50.892;12.724;2023-02-22T08:57:38;13.27;;;5.45;;
73898;SDS011;62234;50.892;12.724;2023-02-22T09:00:06;13.30;;;5.55;;
73898;SDS011;62234;50.892;12.724;2023-02-22T09:02:32;11.45;;;5.47;;
73898;SDS011;62234;50.892;12.724;2023-02-22T09:04:58;14.05;;;5.13;;
73898;SDS011;62234;50.892;12.724;2023-02-22T09:07:24;12.05;;;4.85;;
73898;SDS011;62234;50.892;12.724;2023-02-22T09:09:49;11.68;;;5.38;;
73898;SDS011;62234;50.892;12.724;2023-02-22T09:12:15;14.70;;;5.28;;
73898;SDS011;62234;50.892;12.724;2023-02-22T09:14:41;10.75;;;5.00;;
73898;SDS011;62234;50.892;12.724;2023-02-22T09:17:07;12.32;;;5.10;;
73898;SDS011;62234;50.892;12.724;2023-02-22T09:19:33;13.57;;;5.50;;
73898;SDS011;62234;50.892;12.724;2023-02-22T09:21:59;12.73;;;5.95;;
73898;SDS011;62234;50.892;12.724;2023-02-22T09:24:25;12.10;;;5.40;;
73898;SDS011;62234;50.892;12.724;2023-02-22T09:26:51;10.93;;;5.72;;
73898;SDS011;62234;50.892;12.724;2023-02-22T09:29:18;11.40;;;4.97;;
73898;SDS011;62234;50.892;12.724;2023-02-22T09:31:47;12.63;;;5.60;;
73898;SDS011;62234;50.892;12.724;2023-02-22T09:34:14;9.43;;;4.75;;
73898;SDS011;62234;50.892;12.724;2023-02-22T09:36:40;10.20;;;4.80;;
73898;SDS011;62234;50.892;12.724;2023-02-22T09:39:07;14.30;;;4.95;;
73898;SDS011;62234;50.892;12.724;2023-02-22T09:41:40;8.95;;;4.43;;
73898;SDS011;62234;50.892;12.724;2023-02-22T09:44:15;11.65;;;5.03;;
73898;SDS011;62234;50.892;12.724;2023-02-22T09:46:43;11.25;;;4.50;;
73898;SDS011;62234;50.892;12.724;2023-02-22T09:49:20;10.57;;;5.07;;
73898;SDS011;62234;50.892;12.724;2023-02-22T09:56:44;8.57;;;4.63;;
73898;SDS011;62234;50.892;12.724;2023-02-22T09:59:11;10.60;;;5.10;;
73898;SDS011;62234;50.892;12.724;2023-02-22T10:01:44;10.00;;;4.38;;
73898;SDS011;62234;50.892;12.724;2023-02-22T10:04:16;8.23;;;4.28;;
73898;SDS011;62234;50.892;12.724;2023-02-22T10:06:55;12.70;;;4.60;;
73898;SDS011;62234;50.892;12.724;2023-02-22T10:09:26;10.52;;;4.57;;
73898;SDS011;62234;50.892;12.724;2023-02-22T10:11:57;7.60;;;3.92;;
73898;SDS011;62234;50.892;12.724;2023-02-22T10:19:35;8.95;;;4.10;;
73898;SDS011;62234;50.892;12.724;2023-02-22T10:27:18;8.32;;;3.33;;
73898;SDS011;62234;50.892;12.724;2023-02-22T10:29:47;7.65;;;4.47;;
73898;SDS011;62234;50.892;12.724;2023-02-22T10:32:25;7.88;;;3.85;;
73898;SDS011;62234;50.892;12.724;2023-02-22T10:34:52;8.20;;;4.68;;
73898;SDS011;62234;50.892;12.724;2023-02-22T10:37:26;7.57;;;3.83;;
73898;SDS011;62234;50.892;12.724;2023-02-22T10:39:54;8.95;;;3.90;;
73898;SDS011;62234;50.892;12.724;2023-02-22T10:42:22;13.13;;;5.30;;
73898;SDS011;62234;50.892;12.724;2023-02-22T10:44:50;7.80;;;4.32;;
73898;SDS011;62234;50.892;12.724;2023-02-22T10:47:16;7.32;;;3.70;;
73898;SDS011;62234;50.892;12.724;2023-02-22T10:49:45;5.68;;;3.30;;
73898;SDS011;62234;50.892;12.724;2023-02-22T10:52:28;8.60;;;3.00;;
73898;SDS011;62234;50.892;12.724;2023-02-22T10:57:21;5.05;;;2.95;;
73898;SDS011;62234;50.892;12.724;2023-02-22T10:59:49;6.80;;;2.88;;
73898;SDS011;62234;50.892;12.724;2023-02-22T11:02:32;6.50;;;3.67;;
73898;SDS011;62234;50.892;12.724;2023-02-22T11:04:59;7.05;;;3.47;;
73898;SDS011;62234;50.892;12.724;2023-02-22T11:07:35;6.32;;;3.15;;
73898;SDS011;62234;50.892;12.724;2023-02-22T11:10:04;8.00;;;2.97;;
73898;SDS011;62234;50.892;12.724;2023-02-22T11:12:34;8.15;;;3.72;;
73898;SDS011;62234;50.892;12.724;2023-02-22T11:17:47;6.57;;;3.28;;
73898;SDS011;62234;50.892;12.724;2023-02-22T11:20:27;6.20;;;3.08;;
73898;SDS011;62234;50.892;12.724;2023-02-22T11:22:59;5.35;;;3.20;;
73898;SDS011;62234;50.892;12.724;2023-02-22T11:25:26;6.50;;;3.95;;
73898;SDS011;62234;50.892;12.724;2023-02-22T11:27:53;6.80;;;3.83;;
73898;SDS011;62234;50.892;12.724;2023-02-22T11:30:27;4.35;;;2.72;;
73898;SDS011;62234;50.892;12.724;2023-02-22T11:33:09;5.93;;;3.58;;
73898;SDS011;62234;50.892;12.724;2023-02-22T11:35:54;5.82;;;3.40;;
73898;SDS011;62234;50.892;12.724;2023-02-22T11:40:47;5.78;;;3.20;;
73898;SDS011;62234;50.892;12.724;2023-02-22T11:43:29;6.63;;;3.25;;
73898;SDS011;62234;50.892;12.724;2023-02-22T11:48:28;4.53;;;2.83;;
73898;SDS011;62234;50.892;12.724;2023-02-22T11:53:48;7.45;;;3.60;;
73898;SDS011;62234;50.892;12.724;2023-02-22T11:56:21;5.15;;;3.25;;
73898;SDS011;62234;50.892;12.724;2023-02-22T12:04:28;4.93;;;2.55;;
73898;SDS011;62234;50.892;12.724;2023-02-22T12:15:03;5.53;;;2.50;;
73898;SDS011;62234;50.892;12.724;2023-02-22T12:17:43;3.20;;;2.65;;
73898;SDS011;62234;50.892;12.724;2023-02-22T12:20:17;4.68;;;2.50;;
73898;SDS011;62234;50.892;12.724;2023-02-22T12:25:24;4.97;;;2.65;;
73898;SDS011;62234;50.892;12.724;2023-02-22T12:27:54;4.40;;;2.55;;
73898;SDS011;62234;50.892;12.724;2023-02-22T12:30:23;5.45;;;2.90;;
73898;SDS011;62234;50.892;12.724;2023-02-22T12:32:52;5.20;;;2.80;;
73898;SDS011;62234;50.892;12.724;2023-02-22T12:35:19;4.65;;;2.40;;
73898;SDS011;62234;50.892;12.724;2023-02-22T12:40:31;3.70;;;2.13;;
73898;SDS011;62234;50.892;12.724;2023-02-22T12:43:03;3.55;;;2.30;;
73898;SDS011;62234;50.892;12.724;2023-02-22T12:45:35;3.13;;;2.33;;
73898;SDS011;62234;50.892;12.724;2023-02-22T12:50:51;4.20;;;2.42;;
73898;SDS011;62234;50.892;12.724;2023-02-22T12:53:27;5.10;;;2.88;;
73898;SDS011;62234;50.892;12.724;2023-02-22T12:58:32;3.88;;;2.42;;
73898;SDS011;62234;50.892;12.724;2023-02-22T13:01:10;4.72;;;2.58;;
73898;SDS011;62234;50.892;12.724;2023-02-22T13:06:08;5.10;;;2.72;;
73898;SDS011;62234;50.892;12.724;2023-02-22T13:08:45;3.97;;;2.28;;
73898;SDS011;62234;50.892;12.724;2023-02-22T13:16:17;3.95;;;2.08;;
73898;SDS011;62234;50.892;12.724;2023-02-22T13:24:22;2.42;;;1.88;;
73898;SDS011;62234;50.892;12.724;2023-02-22T13:27:00;3.80;;;2.00;;
73898;SDS011;62234;50.892;12.724;2023-02-22T13:29:33;4.72;;;2.00;;
73898;SDS011;62234;50.892;12.724;2023-02-22T13:39:59;3.90;;;1.73;;
73898;SDS011;62234;50.892;12.724;2023-02-22T13:47:38;3.45;;;2.30;;
73898;SDS011;62234;50.892;12.724;2023-02-22T13:50:14;3.20;;;2.10;;
73898;SDS011;62234;50.892;12.724;2023-02-22T13:52:44;4.20;;;2.25;;
73898;SDS011;62234;50.892;12.724;2023-02-22T13:55:16;2.90;;;1.90;;
73898;SDS011;62234;50.892;12.724;2023-02-22T13:57:44;3.28;;;2.08;;
73898;SDS011;62234;50.892;12.724;2023-02-22T14:13:07;4.72;;;2.47;;
73898;SDS011;62234;50.892;12.724;2023-02-22T14:15:33;6.57;;;2.75;;
73898;SDS011;62234;50.892;12.724;2023-02-22T14:18:00;4.22;;;2.22;;
73898;SDS011;62234;50.892;12.724;2023-02-22T14:20:33;3.55;;;2.35;;
73898;SDS011;62234;50.892;12.724;2023-02-22T14:25:45;3.03;;;2.10;;
73898;SDS011;62234;50.892;12.724;2023-02-22T14:36:16;2.38;;;1.65;;
73898;SDS011;62234;50.892;12.724;2023-02-22T14:38:43;2.72;;;1.98;;
73898;SDS011;62234;50.892;12.724;2023-02-22T14:41:10;2.03;;;1.50;;
73898;SDS011;62234;50.892;12.724;2023-02-22T14:43:36;3.50;;;2.30;;
73898;SDS011;62234;50.892;12.724;2023-02-22T14:46:02;3.58;;;2.25;;
73898;SDS011;62234;50.892;12.724;2023-02-22T14:48:30;2.65;;;2.00;;
73898;SDS011;62234;50.892;12.724;2023-02-22T14:51:22;3.10;;;1.80;;
73898;SDS011;62234;50.892;12.724;2023-02-22T14:53:53;3.83;;;2.03;;
73898;SDS011;62234;50.892;12.724;2023-02-22T14:56:26;4.32;;;2.30;;
73898;SDS011;62234;50.892;12.724;2023-02-22T15:01:38;3.35;;;2.30;;
73898;SDS011;62234;50.892;12.724;2023-02-22T15:06:42;4.20;;;2.55;;
73898;SDS011;62234;50.892;12.724;2023-02-22T15:09:19;2.70;;;1.95;;
73898;SDS011;62234;50.892;12.724;2023-02-22T15:11:52;2.75;;;2.45;;
73898;SDS011;62234;50.892;12.724;2023-02-22T15:14:21;3.88;;;2.20;;
73898;SDS011;62234;50.892;12.724;2023-02-22T15:16:50;3.05;;;1.88;;
73898;SDS011;62234;50.892;12.724;2023-02-22T15:19:19;3.30;;;1.90;;
73898;SDS011;62234;50.892;12.724;2023-02-22T15:21:49;3.78;;;2.05;;
73898;SDS011;62234;50.892;12.724;2023-02-22T15:24:17;2.90;;;2.50;;
73898;SDS011;62234;50.892;12.724;2023-02-22T15:26:45;2.95;;;2.03;;
73898;SDS011;62234;50.892;12.724;2023-02-22T15:29:22;2.38;;;1.92;;
73898;SDS011;62234;50.892;12.724;2023-02-22T15:31:50;4.43;;;2.70;;
73898;SDS011;62234;50.892;12.724;2023-02-22T15:34:18;2.85;;;2.15;;
73898;SDS011;62234;50.892;12.724;2023-02-22T15:36:48;4.05;;;2.15;;
73898;SDS011;62234;50.892;12.724;2023-02-22T15:39:23;3.65;;;2.50;;
73898;SDS011;62234;50.892;12.724;2023-02-22T15:42:01;4.97;;;2.17;;
73898;SDS011;62234;50.892;12.724;2023-02-22T15:44:27;2.83;;;2.22;;
73898;SDS011;62234;50.892;12.724;2023-02-22T15:46:54;5.00;;;2.50;;
73898;SDS011;62234;50.892;12.724;2023-02-22T15:49:21;3.30;;;2.25;;
73898;SDS011;62234;50.892;12.724;2023-02-22T15:51:48;4.10;;;2.10;;
73898;SDS011;62234;50.892;12.724;2023-02-22T15:54:23;3.95;;;2.20;;
73898;SDS011;62234;50.892;12.724;2023-02-22T15:56:50;8.27;;;2.90;;
73898;SDS011;62234;50.892;12.724;2023-02-22T15:59:21;4.80;;;2.25;;
73898;SDS011;62234;50.892;12.724;2023-02-22T16:01:53;4.45;;;2.70;;
73898;SDS011;62234;50.892;12.724;2023-02-22T16:04:20;4.47;;;2.78;;
73898;SDS011;62234;50.892;12.724;2023-02-22T16:06:47;4.80;;;2.38;;
73898;SDS011;62234;50.892;12.724;2023-02-22T16:09:15;3.70;;;2.60;;
73898;SDS011;62234;50.892;12.724;2023-02-22T16:11:45;3.63;;;2.42;;
73898;SDS011;62234;50.892;12.724;2023-02-22T16:17:08;5.45;;;2.70;;
73898;SDS011;62234;50.892;12.724;2023-02-22T16:19:36;8.43;;;3.58;;
73898;SDS011;62234;50.892;12.724;2023-02-22T16:32:49;3.40;;;2.22;;
73898;SDS011;62234;50.892;12.724;2023-02-22T16:35:15;6.35;;;2.92;;
73898;SDS011;62234;50.892;12.724;2023-02-22T16:40:18;6.90;;;3.65;;
73898;SDS011;62234;50.892;12.724;2023-02-22T16:42:46;9.25;;;4.40;;
73898;SDS011;62234;50.892;12.724;2023-02-22T16:45:15;10.82;;;4.32;;
73898;SDS011;62234;50.892;12.724;2023-02-22T16:47:41;5.53;;;3.58;;
73898;SDS011;62234;50.892;12.724;2023-02-22T16:50:08;4.28;;;3.05;;
73898;SDS011;62234;50.892;12.724;2023-02-22T16:52:34;7.40;;;2.88;;
73898;SDS011;62234;50.892;12.724;2023-02-22T16:55:03;3.50;;;2.75;;
73898;SDS011;62234;50.892;12.724;2023-02-22T16:57:30;6.40;;;3.75;;
73898;SDS011;62234;50.892;12.724;2023-02-22T16:59:56;5.28;;;3.13;;
73898;SDS011;62234;50.892;12.724;2023-02-22T17:02:22;8.38;;;3.10;;
73898;SDS011;62234;50.892;12.724;2023-02-22T17:04:48;5.13;;;3.65;;
73898;SDS011;62234;50.892;12.724;2023-02-22T17:07:15;4.47;;;3.08;;
73898;SDS011;62234;50.892;12.724;2023-02-22T17:09:42;10.52;;;4.03;;
73898;SDS011;62234;50.892;12.724;2023-02-22T17:12:07;5.43;;;3.53;;